createdAt,value
2022-12-31T00:00:17.397Z,7.09
2022-12-31T00:01:20.556Z,7.06
2022-12-31T00:02:22.308Z,7.10
2022-12-31T00:03:24.005Z,7.10
2022-12-31T00:04:25.502Z,7.05
2022-12-31T00:05:26.993Z,7.12
2022-12-31T00:06:33.155Z,7.21
2022-12-31T00:08:36.338Z,7.25
2022-12-31T00:09:37.751Z,7.28
2022-12-31T00:10:43.329Z,7.26
2022-12-31T00:11:44.894Z,7.25
2022-12-31T00:12:46.331Z,7.24
2022-12-31T00:13:48.337Z,7.34
2022-12-31T00:14:49.660Z,7.28
2022-12-31T00:15:51.083Z,7.25
2022-12-31T00:16:52.538Z,7.35
2022-12-31T00:17:53.945Z,7.37
2022-12-31T00:18:59.164Z,7.39
2022-12-31T00:20:00.589Z,7.34
2022-12-31T00:21:09.789Z,7.39
2022-12-31T00:22:11.209Z,7.35
2022-12-31T00:23:12.684Z,7.36
2022-12-31T00:24:14.089Z,7.35
2022-12-31T00:25:15.505Z,7.33
2022-12-31T00:26:19.335Z,7.49
2022-12-31T00:27:22.274Z,7.44
2022-12-31T00:28:23.709Z,7.45
2022-12-31T00:29:25.189Z,7.39
2022-12-31T00:30:26.605Z,7.38
2022-12-31T00:31:31.175Z,7.51
2022-12-31T00:32:32.614Z,7.48
2022-12-31T00:33:36.072Z,7.38
2022-12-31T00:34:37.517Z,7.50
2022-12-31T00:35:38.897Z,7.56
2022-12-31T00:36:42.470Z,7.58
2022-12-31T00:37:43.899Z,7.56
2022-12-31T00:38:47.103Z,7.49
2022-12-31T00:39:48.505Z,7.40
2022-12-31T00:40:49.904Z,7.37
2022-12-31T00:41:54.371Z,7.23
2022-12-31T00:42:55.765Z,7.27
2022-12-31T00:43:57.521Z,7.20
2022-12-31T00:44:58.955Z,7.24
2022-12-31T00:46:01.265Z,7.25
2022-12-31T00:47:02.677Z,7.17
2022-12-31T00:48:04.319Z,7.28
2022-12-31T00:49:06.001Z,7.18
2022-12-31T00:50:07.810Z,7.05
2022-12-31T00:51:12.140Z,7.10
2022-12-31T00:52:15.773Z,7.10
2022-12-31T00:53:17.429Z,7.04
2022-12-31T00:54:18.855Z,6.97
2022-12-31T00:55:20.245Z,7.02
2022-12-31T00:56:24.235Z,7.07
2022-12-31T00:57:25.693Z,7.05
2022-12-31T00:58:27.573Z,7.12
2022-12-31T00:59:29.037Z,7.17
2022-12-31T01:00:30.510Z,7.10
2022-12-31T01:01:38.227Z,7.27
2022-12-31T01:02:42.416Z,7.10
2022-12-31T01:03:45.073Z,7.17
2022-12-31T01:04:46.522Z,7.14
2022-12-31T01:05:47.960Z,7.23
2022-12-31T01:06:49.438Z,7.16
2022-12-31T01:07:50.847Z,7.06
2022-12-31T01:08:55.076Z,7.00
2022-12-31T01:09:56.491Z,6.99
2022-12-31T01:11:17.451Z,7.03
2022-12-31T01:12:18.880Z,7.10
2022-12-31T01:13:20.327Z,7.29
2022-12-31T01:14:21.815Z,7.38
2022-12-31T01:15:23.235Z,7.40
2022-12-31T01:16:27.289Z,7.50
2022-12-31T01:17:28.727Z,7.55
2022-12-31T01:18:30.115Z,7.88
2022-12-31T01:19:31.547Z,7.97
2022-12-31T01:20:40.706Z,8.01
2022-12-31T01:21:43.786Z,8.10
2022-12-31T01:22:45.185Z,8.08
2022-12-31T01:23:46.779Z,8.26
2022-12-31T01:24:48.207Z,8.27
2022-12-31T01:25:49.645Z,8.14
2022-12-31T01:26:51.716Z,8.14
2022-12-31T01:27:53.329Z,8.13
2022-12-31T01:28:54.820Z,8.06
2022-12-31T01:29:56.261Z,8.16
2022-12-31T01:30:57.921Z,8.13
2022-12-31T01:31:59.424Z,8.14
2022-12-31T01:33:00.814Z,8.45
2022-12-31T01:34:02.967Z,8.56
2022-12-31T01:35:04.767Z,8.51
2022-12-31T01:36:10.200Z,8.57
2022-12-31T01:37:11.578Z,8.51
2022-12-31T01:38:12.976Z,8.53
2022-12-31T01:39:14.438Z,8.47
2022-12-31T01:40:15.947Z,8.59
2022-12-31T01:41:20.615Z,8.46
2022-12-31T01:42:22.032Z,8.47
2022-12-31T01:43:23.481Z,8.62
2022-12-31T01:44:24.874Z,8.70
2022-12-31T01:45:26.538Z,8.76
2022-12-31T01:46:51.421Z,8.80
2022-12-31T01:47:57.175Z,8.88
2022-12-31T01:49:03.319Z,8.78
2022-12-31T01:50:10.271Z,8.71
2022-12-31T01:51:11.706Z,8.77
2022-12-31T01:52:20.064Z,9.03
2022-12-31T01:53:22.044Z,9.06
2022-12-31T01:54:25.550Z,9.21
2022-12-31T01:55:43.372Z,9.23
2022-12-31T01:56:46.656Z,9.24
2022-12-31T01:57:53.083Z,9.23
2022-12-31T01:58:56.680Z,9.14
2022-12-31T02:00:00.447Z,9.02
2022-12-31T02:01:02.585Z,8.94
2022-12-31T02:02:05.450Z,8.91
2022-12-31T02:03:07.955Z,8.88
2022-12-31T02:04:12.051Z,8.79
2022-12-31T02:05:25.495Z,8.64
2022-12-31T02:06:36.376Z,8.62
2022-12-31T02:07:40.349Z,8.32
2022-12-31T02:08:42.411Z,8.50
2022-12-31T02:09:44.479Z,8.57
2022-12-31T02:10:45.901Z,8.42
2022-12-31T02:11:47.419Z,8.41
2022-12-31T02:12:49.129Z,8.34
2022-12-31T02:13:58.212Z,8.29
2022-12-31T02:15:00.283Z,8.33
2022-12-31T02:16:13.623Z,8.28
2022-12-31T02:17:41.776Z,8.30
2022-12-31T02:18:56.514Z,8.29
2022-12-31T02:20:24.381Z,8.31
2022-12-31T02:21:44.377Z,8.38
2022-12-31T02:23:01.073Z,8.28
2022-12-31T02:24:14.525Z,8.31
2022-12-31T02:25:40.989Z,8.30
2022-12-31T02:26:53.462Z,8.26
2022-12-31T02:28:31.843Z,8.19
2022-12-31T02:30:12.808Z,8.18
2022-12-31T02:31:50.077Z,8.07
2022-12-31T02:33:02.842Z,8.03
2022-12-31T02:34:31.433Z,8.02
2022-12-31T02:35:36.729Z,7.93
2022-12-31T02:36:42.308Z,7.92
2022-12-31T02:37:48.095Z,7.91
2022-12-31T02:38:50.008Z,7.85
2022-12-31T02:39:51.842Z,7.85
2022-12-31T02:40:54.570Z,7.80
2022-12-31T02:41:55.987Z,7.86
2022-12-31T02:42:57.424Z,7.76
2022-12-31T02:43:58.848Z,7.81
2022-12-31T02:45:00.286Z,7.77
2022-12-31T02:46:16.798Z,7.71
2022-12-31T02:48:01.210Z,7.84
2022-12-31T02:49:20.416Z,7.78
2022-12-31T02:50:30.753Z,7.76
2022-12-31T02:52:10.368Z,7.77
2022-12-31T02:53:34.971Z,7.79
2022-12-31T02:54:36.416Z,7.83
2022-12-31T02:56:03.179Z,7.84
2022-12-31T02:57:13.676Z,7.84
2022-12-31T02:58:45.698Z,7.79
2022-12-31T03:00:20.289Z,7.83
2022-12-31T03:01:49.213Z,7.88
2022-12-31T03:02:52.714Z,7.83
2022-12-31T03:04:14.167Z,7.93
2022-12-31T03:05:19.447Z,8.00
2022-12-31T03:06:20.902Z,8.04
2022-12-31T03:07:26.341Z,8.15
2022-12-31T03:08:27.759Z,8.17
2022-12-31T03:09:29.140Z,8.16
2022-12-31T03:10:30.611Z,8.17
2022-12-31T03:11:54.930Z,8.19
2022-12-31T03:12:56.369Z,8.20
2022-12-31T03:13:57.752Z,8.19
2022-12-31T03:14:59.178Z,8.22
2022-12-31T03:16:00.624Z,8.24
2022-12-31T03:17:02.081Z,8.30
2022-12-31T03:18:16.590Z,8.34
2022-12-31T03:19:36.577Z,8.32
2022-12-31T03:21:01.706Z,8.38
2022-12-31T03:22:22.064Z,8.47
2022-12-31T03:23:28.658Z,8.47
2022-12-31T03:24:48.551Z,8.55
2022-12-31T03:25:50.108Z,8.57
2022-12-31T03:26:51.509Z,8.55
2022-12-31T03:27:53.471Z,8.61
2022-12-31T03:28:54.810Z,8.61
2022-12-31T03:29:56.213Z,8.62
2022-12-31T03:31:00.469Z,8.66
2022-12-31T03:32:02.091Z,8.55
2022-12-31T03:33:05.027Z,8.47
2022-12-31T03:34:06.405Z,8.45
2022-12-31T03:35:08.677Z,8.52
2022-12-31T03:36:14.782Z,8.46
2022-12-31T03:37:16.239Z,8.59
2022-12-31T03:38:18.940Z,8.58
2022-12-31T03:39:20.344Z,8.56
2022-12-31T03:40:23.245Z,8.62
2022-12-31T03:41:24.704Z,8.66
2022-12-31T03:42:26.242Z,8.68
2022-12-31T03:43:27.790Z,8.71
2022-12-31T03:44:29.202Z,8.79
2022-12-31T03:45:30.773Z,8.82
2022-12-31T03:46:32.210Z,8.88
2022-12-31T03:47:33.633Z,8.84
2022-12-31T03:48:35.538Z,8.82
2022-12-31T03:49:36.981Z,8.80
2022-12-31T03:50:38.442Z,8.80
2022-12-31T03:51:39.863Z,8.84
2022-12-31T03:52:41.372Z,8.97
2022-12-31T03:53:42.778Z,9.02
2022-12-31T03:54:44.216Z,8.98
2022-12-31T03:55:45.722Z,9.10
2022-12-31T03:56:49.558Z,9.07
2022-12-31T03:57:51.574Z,9.01
2022-12-31T03:58:52.979Z,9.05
2022-12-31T03:59:54.545Z,9.13
2022-12-31T04:00:55.996Z,9.22
2022-12-31T04:01:57.714Z,9.14
2022-12-31T04:02:59.315Z,9.18
2022-12-31T04:04:00.776Z,9.17
2022-12-31T04:05:02.240Z,9.18
2022-12-31T04:06:03.693Z,9.20
2022-12-31T04:07:10.991Z,9.11
2022-12-31T04:08:18.331Z,9.16
2022-12-31T04:09:19.895Z,9.25
2022-12-31T04:10:21.378Z,9.20
2022-12-31T04:11:22.846Z,9.25
2022-12-31T04:12:27.438Z,9.18
2022-12-31T04:13:28.860Z,9.13
2022-12-31T04:14:30.286Z,9.16
2022-12-31T04:15:32.336Z,9.20
2022-12-31T04:16:33.760Z,9.23
2022-12-31T04:17:35.320Z,9.24
2022-12-31T04:18:36.776Z,9.24
2022-12-31T04:19:38.206Z,9.19
2022-12-31T04:20:39.594Z,9.23
2022-12-31T04:21:42.714Z,9.31
2022-12-31T04:22:45.831Z,9.30
2022-12-31T04:23:47.240Z,9.30
2022-12-31T04:24:48.702Z,9.26
2022-12-31T04:25:50.132Z,9.31
2022-12-31T04:26:53.642Z,9.28
2022-12-31T04:27:55.087Z,9.31
2022-12-31T04:28:56.831Z,9.26
2022-12-31T04:29:58.244Z,9.30
2022-12-31T04:31:01.730Z,9.35
2022-12-31T04:32:04.499Z,9.31
2022-12-31T04:33:05.964Z,9.39
2022-12-31T04:34:07.369Z,9.40
2022-12-31T04:35:09.568Z,9.41
2022-12-31T04:36:11.176Z,9.43
2022-12-31T04:37:12.611Z,9.63
2022-12-31T04:38:14.043Z,9.67
2022-12-31T04:39:18.192Z,9.68
2022-12-31T04:40:19.825Z,9.66
2022-12-31T04:41:21.341Z,9.67
2022-12-31T04:42:22.765Z,9.66
2022-12-31T04:43:24.219Z,9.73
2022-12-31T04:44:25.663Z,9.87
2022-12-31T04:45:27.050Z,9.80
2022-12-31T04:46:33.034Z,9.71
2022-12-31T04:47:34.574Z,9.90
2022-12-31T04:48:36.106Z,9.83
2022-12-31T04:49:37.502Z,9.80
2022-12-31T04:50:38.932Z,9.79
2022-12-31T04:51:40.492Z,9.79
2022-12-31T04:52:44.323Z,9.79
2022-12-31T04:53:46.276Z,9.88
2022-12-31T04:54:50.687Z,9.80
2022-12-31T04:55:55.299Z,9.90
2022-12-31T04:56:56.766Z,9.82
2022-12-31T04:57:58.214Z,9.93
2022-12-31T04:58:59.662Z,9.84
2022-12-31T05:00:01.083Z,9.83
2022-12-31T05:01:02.690Z,9.93
2022-12-31T05:02:04.294Z,9.82
2022-12-31T05:03:06.042Z,9.77
2022-12-31T05:04:07.543Z,9.94
2022-12-31T05:05:09.361Z,10.11
2022-12-31T05:06:16.641Z,9.98
2022-12-31T05:07:18.104Z,10.02
2022-12-31T05:08:20.403Z,10.07
2022-12-31T05:09:24.027Z,10.13
2022-12-31T05:10:25.511Z,10.11
2022-12-31T05:11:26.969Z,10.10
2022-12-31T05:12:28.515Z,10.03
2022-12-31T05:13:33.294Z,10.15
2022-12-31T05:14:35.217Z,10.10
2022-12-31T05:15:36.744Z,10.10
2022-12-31T05:16:38.192Z,10.26
2022-12-31T05:17:39.800Z,10.25
2022-12-31T05:18:41.213Z,10.19
2022-12-31T05:19:42.625Z,10.23
2022-12-31T05:20:46.164Z,10.31
2022-12-31T05:22:07.626Z,10.26
2022-12-31T05:23:09.372Z,10.36
2022-12-31T05:24:10.767Z,10.36
2022-12-31T05:25:14.887Z,10.46
2022-12-31T05:26:17.075Z,10.45
2022-12-31T05:27:18.495Z,10.52
2022-12-31T05:28:22.802Z,10.62
2022-12-31T05:29:24.232Z,10.52
2022-12-31T05:30:25.748Z,10.45
2022-12-31T05:31:27.522Z,10.46
2022-12-31T05:32:29.028Z,10.38
2022-12-31T05:33:30.502Z,10.36
2022-12-31T05:34:31.920Z,10.30
2022-12-31T05:35:33.500Z,10.30
2022-12-31T05:36:34.912Z,10.27
2022-12-31T05:37:38.437Z,10.23
2022-12-31T05:38:39.991Z,10.25
2022-12-31T05:39:41.404Z,10.18
2022-12-31T05:40:45.651Z,10.13
2022-12-31T05:41:47.107Z,10.14
2022-12-31T05:42:49.981Z,10.09
2022-12-31T05:43:51.446Z,10.11
2022-12-31T05:44:52.853Z,10.15
2022-12-31T05:45:54.344Z,10.12
2022-12-31T05:46:58.760Z,10.08
2022-12-31T05:48:00.474Z,10.17
2022-12-31T05:49:01.886Z,10.16
2022-12-31T05:50:03.706Z,10.09
2022-12-31T05:51:05.284Z,10.15
2022-12-31T05:52:06.832Z,10.17
2022-12-31T05:53:08.274Z,10.15
2022-12-31T05:54:09.752Z,10.18
2022-12-31T05:55:12.099Z,10.16
2022-12-31T05:56:17.777Z,10.11
2022-12-31T05:57:19.210Z,10.16
2022-12-31T05:58:20.648Z,10.22
2022-12-31T05:59:22.170Z,10.24
2022-12-31T06:00:26.767Z,10.28
2022-12-31T06:01:28.221Z,10.08
2022-12-31T06:02:35.411Z,10.09
2022-12-31T06:03:36.917Z,10.09
2022-12-31T06:04:38.319Z,10.00
2022-12-31T06:05:41.933Z,9.94
2022-12-31T06:06:43.423Z,9.92
2022-12-31T06:07:45.446Z,9.95
2022-12-31T06:08:50.038Z,10.02
2022-12-31T06:09:51.461Z,9.94
2022-12-31T06:10:52.876Z,9.98
2022-12-31T06:11:57.255Z,9.91
2022-12-31T06:12:58.684Z,9.86
2022-12-31T06:14:00.165Z,9.82
2022-12-31T06:15:01.628Z,9.88
2022-12-31T06:16:10.369Z,9.97
2022-12-31T06:17:11.875Z,10.04
2022-12-31T06:18:13.271Z,9.93
2022-12-31T06:19:14.830Z,9.97
2022-12-31T06:20:18.061Z,10.05
2022-12-31T06:21:22.880Z,10.10
2022-12-31T06:22:24.392Z,10.06
2022-12-31T06:23:25.857Z,9.99
2022-12-31T06:24:27.362Z,10.09
2022-12-31T06:25:28.782Z,10.15
2022-12-31T06:26:30.199Z,10.18
2022-12-31T06:27:31.610Z,10.33
2022-12-31T06:28:33.342Z,10.43
2022-12-31T06:29:34.806Z,10.40
2022-12-31T06:30:36.364Z,10.42
2022-12-31T06:31:37.846Z,10.63
2022-12-31T06:32:40.652Z,10.56
2022-12-31T06:33:46.863Z,10.73
2022-12-31T06:34:48.303Z,10.74
2022-12-31T06:35:55.858Z,10.81
2022-12-31T06:36:57.878Z,10.82
2022-12-31T06:37:59.216Z,10.72
2022-12-31T06:39:04.121Z,10.61
2022-12-31T06:40:06.295Z,10.75
2022-12-31T06:41:13.503Z,10.77
2022-12-31T06:42:14.925Z,10.89
2022-12-31T06:43:16.437Z,10.85
2022-12-31T06:44:17.927Z,10.86
2022-12-31T06:45:19.927Z,10.86
2022-12-31T06:46:21.386Z,10.82
2022-12-31T06:47:22.860Z,10.83
2022-12-31T06:48:27.179Z,10.87
2022-12-31T06:49:28.657Z,10.90
2022-12-31T06:50:30.087Z,11.01
2022-12-31T06:51:31.597Z,11.09
2022-12-31T06:52:33.650Z,11.22
2022-12-31T06:53:35.102Z,11.20
2022-12-31T06:54:36.840Z,11.22
2022-12-31T06:55:38.681Z,11.32
2022-12-31T06:56:40.656Z,11.31
2022-12-31T06:57:42.107Z,11.40
2022-12-31T06:58:44.616Z,11.46
2022-12-31T06:59:48.990Z,11.35
2022-12-31T07:01:12.856Z,11.35
2022-12-31T07:02:49.338Z,11.60
2022-12-31T07:04:14.359Z,11.42
2022-12-31T07:05:49.499Z,11.49
2022-12-31T07:07:20.161Z,11.53
2022-12-31T07:08:46.185Z,11.61
2022-12-31T07:09:53.667Z,11.80
2022-12-31T07:11:20.688Z,11.80
2022-12-31T07:12:53.647Z,11.77
2022-12-31T07:14:18.403Z,11.74
2022-12-31T07:15:36.940Z,11.81
2022-12-31T07:17:17.150Z,11.75
2022-12-31T07:18:59.040Z,11.70
2022-12-31T07:20:10.880Z,11.61
2022-12-31T07:21:20.987Z,11.70
2022-12-31T07:22:22.622Z,11.76
2022-12-31T07:23:24.762Z,11.88
2022-12-31T07:24:26.677Z,11.82
2022-12-31T07:25:28.558Z,11.71
2022-12-31T07:27:18.411Z,12.02
2022-12-31T07:28:46.125Z,12.04
2022-12-31T07:29:50.415Z,12.10
2022-12-31T07:31:01.600Z,12.03
2022-12-31T07:32:30.211Z,12.26
2022-12-31T07:33:46.743Z,12.09
2022-12-31T07:34:48.115Z,12.01
2022-12-31T07:36:08.322Z,12.10
2022-12-31T07:37:37.609Z,12.00
2022-12-31T07:39:05.656Z,12.06
2022-12-31T07:40:13.672Z,12.01
2022-12-31T07:41:17.978Z,12.02
2022-12-31T07:42:33.013Z,12.20
2022-12-31T07:44:00.665Z,12.13
2022-12-31T07:45:20.890Z,12.03
2022-12-31T07:46:28.544Z,11.97
2022-12-31T07:47:30.652Z,11.99
2022-12-31T07:48:32.122Z,11.96
2022-12-31T07:49:34.185Z,11.88
2022-12-31T07:50:35.909Z,11.99
2022-12-31T07:51:37.964Z,11.95
2022-12-31T07:52:39.967Z,12.09
2022-12-31T07:53:41.294Z,12.10
2022-12-31T07:54:42.876Z,12.17
2022-12-31T07:55:44.343Z,12.25
2022-12-31T07:56:46.768Z,12.36
2022-12-31T07:58:24.205Z,12.36
2022-12-31T07:59:52.099Z,12.46
2022-12-31T08:00:57.162Z,12.39
2022-12-31T08:02:30.816Z,12.56
2022-12-31T08:04:07.194Z,12.49
2022-12-31T08:05:26.929Z,12.67
2022-12-31T08:06:38.977Z,12.71
2022-12-31T08:07:55.666Z,12.63
2022-12-31T08:09:15.954Z,12.63
2022-12-31T08:10:43.430Z,12.59
2022-12-31T08:11:54.176Z,12.63
2022-12-31T08:13:02.202Z,12.63
2022-12-31T08:14:03.772Z,12.57
2022-12-31T08:15:14.138Z,12.61
2022-12-31T08:16:16.035Z,12.60
2022-12-31T08:17:18.419Z,12.67
2022-12-31T08:18:20.165Z,12.57
2022-12-31T08:19:25.623Z,12.73
2022-12-31T08:20:29.933Z,12.65
2022-12-31T08:21:46.251Z,12.62
2022-12-31T08:23:14.852Z,12.69
2022-12-31T08:24:35.710Z,12.74
2022-12-31T08:26:23.587Z,12.78
2022-12-31T08:27:55.649Z,12.76
2022-12-31T08:29:16.674Z,12.77
2022-12-31T08:30:21.244Z,12.78
2022-12-31T08:31:27.429Z,12.93
2022-12-31T08:32:37.610Z,13.12
2022-12-31T08:34:14.501Z,12.99
2022-12-31T08:35:22.139Z,12.85
2022-12-31T08:37:01.969Z,12.87
2022-12-31T08:38:17.939Z,12.95
2022-12-31T08:39:27.698Z,12.90
2022-12-31T08:40:42.156Z,12.85
2022-12-31T08:41:45.841Z,12.92
2022-12-31T08:43:13.377Z,13.09
2022-12-31T08:44:17.547Z,13.14
2022-12-31T08:45:43.237Z,13.31
2022-12-31T08:46:51.639Z,13.09
2022-12-31T08:48:22.478Z,13.11
2022-12-31T08:49:27.401Z,13.12
2022-12-31T08:50:29.447Z,13.14
2022-12-31T08:51:31.040Z,13.24
2022-12-31T08:52:32.712Z,13.24
2022-12-31T08:53:35.007Z,13.37
2022-12-31T08:54:36.706Z,13.23
2022-12-31T08:55:38.550Z,13.19
2022-12-31T08:56:50.446Z,13.22
2022-12-31T08:58:28.292Z,13.38
2022-12-31T08:59:44.660Z,13.52
2022-12-31T09:00:49.652Z,13.59
2022-12-31T09:01:54.380Z,13.61
2022-12-31T09:03:16.846Z,13.65
2022-12-31T09:04:46.437Z,13.67
2022-12-31T09:05:58.789Z,13.54
2022-12-31T09:07:03.272Z,13.66
2022-12-31T09:08:12.870Z,13.70
2022-12-31T09:09:25.108Z,13.66
2022-12-31T09:10:32.561Z,13.76
2022-12-31T09:11:50.417Z,13.78
2022-12-31T09:13:07.735Z,13.87
2022-12-31T09:14:15.631Z,13.82
2022-12-31T09:15:22.364Z,13.82
2022-12-31T09:16:54.336Z,13.82
2022-12-31T09:17:56.140Z,13.68
2022-12-31T09:18:57.658Z,13.70
2022-12-31T09:19:59.459Z,13.70
2022-12-31T09:21:01.090Z,13.79
2022-12-31T09:22:02.981Z,13.91
2022-12-31T09:23:05.405Z,13.88
2022-12-31T09:24:09.851Z,14.04
2022-12-31T09:25:17.346Z,13.99
2022-12-31T09:27:05.541Z,14.06
2022-12-31T09:28:13.948Z,14.15
2022-12-31T09:29:38.790Z,14.03
2022-12-31T09:30:44.124Z,14.08
2022-12-31T09:32:08.769Z,14.11
2022-12-31T09:33:33.059Z,14.16
2022-12-31T09:34:40.359Z,14.19
2022-12-31T09:35:55.395Z,14.27
2022-12-31T09:37:06.375Z,14.24
2022-12-31T09:38:13.526Z,14.22
2022-12-31T09:39:22.046Z,14.21
2022-12-31T09:40:35.733Z,14.25
2022-12-31T09:42:05.428Z,14.17
2022-12-31T09:43:28.783Z,14.29
2022-12-31T09:45:04.354Z,14.45
2022-12-31T09:46:43.508Z,14.43
2022-12-31T09:48:16.022Z,14.29
2022-12-31T09:49:35.739Z,14.36
2022-12-31T09:50:55.382Z,14.42
2022-12-31T09:52:34.271Z,14.48
2022-12-31T09:53:41.012Z,14.57
2022-12-31T09:55:21.897Z,14.66
2022-12-31T09:56:32.547Z,14.46
2022-12-31T09:57:40.418Z,14.73
2022-12-31T09:58:57.190Z,14.68
2022-12-31T10:00:33.613Z,14.65
2022-12-31T10:01:59.282Z,14.75
2022-12-31T10:03:31.992Z,14.80
2022-12-31T10:04:56.237Z,14.80
2022-12-31T10:06:24.272Z,14.88
2022-12-31T10:07:54.996Z,14.84
2022-12-31T10:09:39.162Z,14.90
2022-12-31T10:10:55.855Z,14.89
2022-12-31T10:12:24.958Z,15.03
2022-12-31T10:13:40.739Z,15.12
2022-12-31T10:15:00.754Z,15.16
2022-12-31T10:16:14.315Z,15.16
2022-12-31T10:17:41.689Z,15.18
2022-12-31T10:19:28.135Z,15.25
2022-12-31T10:21:08.761Z,15.27
2022-12-31T10:22:28.302Z,15.20
2022-12-31T10:24:20.751Z,15.29
2022-12-31T10:25:38.486Z,15.38
2022-12-31T10:26:59.941Z,15.49
2022-12-31T10:28:12.306Z,15.53
2022-12-31T10:29:38.340Z,15.62
2022-12-31T10:31:03.316Z,15.64
2022-12-31T10:32:04.708Z,15.79
2022-12-31T10:33:21.377Z,15.80
2022-12-31T10:34:31.496Z,15.89
2022-12-31T10:35:57.197Z,15.98
2022-12-31T10:37:09.164Z,15.92
2022-12-31T10:38:46.073Z,16.03
2022-12-31T10:40:01.709Z,15.97
2022-12-31T10:41:27.152Z,16.13
2022-12-31T10:42:34.341Z,16.06
2022-12-31T10:44:17.644Z,16.16
2022-12-31T10:45:33.571Z,16.17
2022-12-31T10:47:05.878Z,16.07
2022-12-31T10:48:26.020Z,16.04
2022-12-31T10:50:14.308Z,16.02
2022-12-31T10:51:54.279Z,15.96
2022-12-31T10:53:18.149Z,16.04
2022-12-31T10:55:01.408Z,15.93
2022-12-31T10:56:24.836Z,15.87
2022-12-31T10:58:01.874Z,15.80
2022-12-31T10:59:11.259Z,15.89
2022-12-31T11:00:17.635Z,15.79
2022-12-31T11:02:09.415Z,15.76
2022-12-31T11:03:37.197Z,15.92
2022-12-31T11:05:10.429Z,16.00
2022-12-31T11:06:32.003Z,16.08
2022-12-31T11:07:54.614Z,16.09
2022-12-31T11:09:20.044Z,16.22
2022-12-31T11:10:42.853Z,16.14
2022-12-31T11:12:04.718Z,16.19
2022-12-31T11:13:08.901Z,16.16
2022-12-31T11:14:51.927Z,16.10
2022-12-31T11:16:12.513Z,16.03
2022-12-31T11:17:30.985Z,16.04
2022-12-31T11:18:56.794Z,16.07
2022-12-31T11:20:10.597Z,16.09
2022-12-31T11:21:28.234Z,16.09
2022-12-31T11:23:08.140Z,16.09
2022-12-31T11:24:28.300Z,16.03
2022-12-31T11:25:43.755Z,15.98
2022-12-31T11:27:10.088Z,15.90
2022-12-31T11:28:34.980Z,15.91
2022-12-31T11:29:48.401Z,15.97
2022-12-31T11:31:12.409Z,15.96
2022-12-31T11:32:44.570Z,15.94
2022-12-31T11:34:24.706Z,15.86
2022-12-31T11:35:42.900Z,15.85
2022-12-31T11:37:18.024Z,15.79
2022-12-31T11:38:31.900Z,15.91
2022-12-31T11:39:49.251Z,15.82
2022-12-31T11:41:07.838Z,15.94
2022-12-31T11:42:26.845Z,16.06
2022-12-31T11:43:35.497Z,16.16
2022-12-31T11:45:12.622Z,16.13
2022-12-31T11:47:04.832Z,16.23
2022-12-31T11:48:43.318Z,16.29
2022-12-31T11:50:10.457Z,16.23
2022-12-31T11:51:50.823Z,16.23
2022-12-31T11:53:15.423Z,16.26
2022-12-31T11:55:12.497Z,16.29
2022-12-31T11:56:34.539Z,16.28
2022-12-31T11:57:38.412Z,16.28
2022-12-31T11:58:47.649Z,16.32
2022-12-31T11:59:56.880Z,16.37
2022-12-31T12:01:47.677Z,16.46
2022-12-31T12:02:56.505Z,16.52
2022-12-31T12:03:58.148Z,16.47
2022-12-31T12:05:11.507Z,16.52
2022-12-31T12:06:18.627Z,16.60
2022-12-31T12:07:20.847Z,16.59
2022-12-31T12:08:22.741Z,16.60
2022-12-31T12:09:28.999Z,16.59
2022-12-31T12:10:37.162Z,16.61
2022-12-31T12:11:39.951Z,16.55
2022-12-31T12:12:42.685Z,16.54
2022-12-31T12:13:44.356Z,16.52
2022-12-31T12:14:51.897Z,16.47
2022-12-31T12:15:58.083Z,16.54
2022-12-31T12:17:05.889Z,16.56
2022-12-31T12:18:13.954Z,16.51
2022-12-31T12:19:18.710Z,16.38
2022-12-31T12:20:35.435Z,16.45
2022-12-31T12:21:46.998Z,16.46
2022-12-31T12:22:54.740Z,16.40
2022-12-31T12:24:01.641Z,16.37
2022-12-31T12:25:07.494Z,16.42
2022-12-31T12:26:32.940Z,16.47
2022-12-31T12:27:36.040Z,16.49
2022-12-31T12:28:45.850Z,16.38
2022-12-31T12:29:50.547Z,16.37
2022-12-31T12:31:02.258Z,16.36
2022-12-31T12:32:04.071Z,16.41
2022-12-31T12:33:06.295Z,16.31
2022-12-31T12:34:27.214Z,16.23
2022-12-31T12:35:34.361Z,16.26
2022-12-31T12:36:46.803Z,16.31
2022-12-31T12:38:01.446Z,16.11
2022-12-31T12:39:05.422Z,16.26
2022-12-31T12:40:22.213Z,16.33
2022-12-31T12:41:26.340Z,16.16
2022-12-31T12:42:29.300Z,16.35
2022-12-31T12:43:35.835Z,16.24
2022-12-31T12:44:42.126Z,16.30
2022-12-31T12:45:52.088Z,16.39
2022-12-31T12:46:54.333Z,16.40
2022-12-31T12:47:57.679Z,16.33
2022-12-31T12:49:00.078Z,16.23
2022-12-31T12:50:03.065Z,16.23
2022-12-31T12:51:39.582Z,16.29
2022-12-31T12:52:47.038Z,16.47
2022-12-31T12:54:20.308Z,16.34
2022-12-31T12:55:49.087Z,16.31
2022-12-31T12:57:20.509Z,16.43
2022-12-31T12:59:06.482Z,16.40
2022-12-31T13:00:18.687Z,16.28
2022-12-31T13:01:26.080Z,16.36
2022-12-31T13:02:35.786Z,16.37
2022-12-31T13:04:32.591Z,16.28
2022-12-31T13:05:28.232Z,16.40
2022-12-31T13:07:02.214Z,16.42
2022-12-31T13:08:28.319Z,16.39
2022-12-31T13:09:59.095Z,16.40
2022-12-31T13:11:17.604Z,16.36
2022-12-31T13:12:56.787Z,16.36
2022-12-31T13:14:03.549Z,16.58
2022-12-31T13:15:18.714Z,16.51
2022-12-31T13:16:30.782Z,16.40
2022-12-31T13:17:41.133Z,16.48
2022-12-31T13:19:09.397Z,16.54
2022-12-31T13:20:35.269Z,16.48
2022-12-31T13:21:46.356Z,16.50
2022-12-31T13:23:01.093Z,16.55
2022-12-31T13:24:23.897Z,16.63
2022-12-31T13:25:46.939Z,16.52
2022-12-31T13:26:58.755Z,16.46
2022-12-31T13:28:06.283Z,16.52
2022-12-31T13:29:34.461Z,16.64
2022-12-31T13:31:06.301Z,16.55
2022-12-31T13:32:15.547Z,16.47
2022-12-31T13:33:24.367Z,16.48
2022-12-31T13:34:33.404Z,16.40
2022-12-31T13:35:44.639Z,16.42
2022-12-31T13:36:48.614Z,16.47
2022-12-31T13:37:56.823Z,16.38
2022-12-31T13:39:02.781Z,16.40
2022-12-31T13:40:38.085Z,16.52
2022-12-31T13:41:46.576Z,16.51
2022-12-31T13:43:12.384Z,16.53
2022-12-31T13:44:23.657Z,16.42
2022-12-31T13:45:31.018Z,16.49
2022-12-31T13:46:52.902Z,16.51
2022-12-31T13:48:00.688Z,16.37
2022-12-31T13:49:14.527Z,16.41
2022-12-31T13:50:36.010Z,16.42
2022-12-31T13:51:46.983Z,16.47
2022-12-31T13:52:54.351Z,16.58
2022-12-31T13:54:07.829Z,16.48
2022-12-31T13:55:27.528Z,16.45
2022-12-31T13:56:33.834Z,16.37
2022-12-31T13:57:35.756Z,16.27
2022-12-31T13:58:40.893Z,16.42
2022-12-31T13:59:51.830Z,16.26
2022-12-31T14:01:00.234Z,16.25
2022-12-31T14:02:30.455Z,16.17
2022-12-31T14:03:45.609Z,16.24
2022-12-31T14:04:51.704Z,16.29
2022-12-31T14:06:06.535Z,16.33
2022-12-31T14:07:20.721Z,16.36
2022-12-31T14:08:22.260Z,16.45
2022-12-31T14:09:26.261Z,16.44
2022-12-31T14:11:08.199Z,16.51
2022-12-31T14:12:15.744Z,16.46
2022-12-31T14:13:34.178Z,16.42
2022-12-31T14:15:01.419Z,16.56
2022-12-31T14:16:08.832Z,16.53
2022-12-31T14:17:19.790Z,16.54
2022-12-31T14:18:34.612Z,16.40
2022-12-31T14:19:40.989Z,16.26
2022-12-31T14:20:49.143Z,16.30
2022-12-31T14:21:56.781Z,16.30
2022-12-31T14:23:04.305Z,16.26
2022-12-31T14:24:23.130Z,16.19
2022-12-31T14:25:57.182Z,16.17
2022-12-31T14:27:03.645Z,16.19
2022-12-31T14:28:08.207Z,16.15
2022-12-31T14:29:13.909Z,16.23
2022-12-31T14:30:19.507Z,16.06
2022-12-31T14:31:55.084Z,16.07
2022-12-31T14:33:16.132Z,16.05
2022-12-31T14:34:42.931Z,16.10
2022-12-31T14:36:14.121Z,16.21
2022-12-31T14:37:46.264Z,16.04
2022-12-31T14:38:59.824Z,16.14
2022-12-31T14:40:26.262Z,16.19
2022-12-31T14:41:38.749Z,16.19
2022-12-31T14:42:55.798Z,16.15
2022-12-31T14:44:18.949Z,16.13
2022-12-31T14:45:48.826Z,16.07
2022-12-31T14:47:17.329Z,15.95
2022-12-31T14:48:34.080Z,15.86
2022-12-31T14:50:02.209Z,15.79
2022-12-31T14:51:05.312Z,15.81
2022-12-31T14:52:15.558Z,15.59
2022-12-31T14:53:28.564Z,15.62
2022-12-31T14:54:38.006Z,15.50
2022-12-31T14:55:40.955Z,15.43
2022-12-31T14:56:45.103Z,15.53
2022-12-31T14:59:29.419Z,15.26
2022-12-31T15:00:39.190Z,15.20
2022-12-31T15:01:45.445Z,15.23
2022-12-31T15:02:56.846Z,15.15
2022-12-31T15:03:58.637Z,15.12
2022-12-31T15:05:16.023Z,15.28
2022-12-31T15:06:23.374Z,15.18
2022-12-31T15:07:52.237Z,15.16
2022-12-31T15:09:19.831Z,15.17
2022-12-31T15:10:48.715Z,15.33
2022-12-31T15:11:56.219Z,15.47
2022-12-31T15:13:19.002Z,15.54
2022-12-31T15:14:37.621Z,15.46
2022-12-31T15:15:56.769Z,15.52
2022-12-31T15:17:23.005Z,15.56
2022-12-31T15:18:31.990Z,15.49
2022-12-31T15:20:18.609Z,15.35
2022-12-31T15:21:44.930Z,15.15
2022-12-31T15:22:48.234Z,15.16
2022-12-31T15:23:49.851Z,15.19
2022-12-31T15:24:51.629Z,15.08
2022-12-31T15:25:59.310Z,15.09